sensor_id;sensor_type;location;lat;lon;timestamp;noise_LAeq;noise_LA_min;noise_LA_max;noise_LA01;noise_LA95
37162;Laerm;68342;52.598;13.450;2024-03-23T00:54:05;37.38;33.51;49.68;;
37162;Laerm;68342;52.598;13.450;2024-03-23T00:56:31;37.19;32.39;51.30;;
37162;Laerm;68342;52.598;13.450;2024-03-23T00:58:56;37.02;32.00;51.73;;
37162;Laerm;68342;52.598;13.450;2024-03-23T01:01:21;36.40;31.90;48.60;;
37162;Laerm;68342;52.598;13.450;2024-03-23T01:03:46;35.98;31.75;51.51;;
37162;Laerm;68342;52.598;13.450;2024-03-23T01:06:12;37.06;31.60;50.71;;
37162;Laerm;68342;52.598;13.450;2024-03-23T01:08:37;36.77;32.32;51.88;;
37162;Laerm;68342;52.598;13.450;2024-03-23T01:11:02;36.40;31.76;49.41;;
37162;Laerm;68342;52.598;13.450;2024-03-23T01:13:28;36.26;31.64;50.35;;
37162;Laerm;68342;52.598;13.450;2024-03-23T01:15:54;37.03;31.79;48.76;;
37162;Laerm;68342;52.598;13.450;2024-03-23T01:18:20;37.38;31.95;50.79;;
37162;Laerm;68342;52.598;13.450;2024-03-23T01:20:46;36.68;32.28;50.90;;
37162;Laerm;68342;52.598;13.450;2024-03-23T01:23:11;36.89;31.96;49.47;;
37162;Laerm;68342;52.598;13.450;2024-03-23T01:25:39;36.88;32.40;52.61;;
37162;Laerm;68342;52.598;13.450;2024-03-23T01:28:05;37.19;31.91;54.20;;
37162;Laerm;68342;52.598;13.450;2024-03-23T01:30:31;36.03;30.55;52.14;;
37162;Laerm;68342;52.598;13.450;2024-03-23T01:32:56;36.83;32.57;50.18;;
37162;Laerm;68342;52.598;13.450;2024-03-23T01:35:22;36.92;32.37;52.73;;
37162;Laerm;68342;52.598;13.450;2024-03-23T01:37:47;36.08;31.26;49.31;;
37162;Laerm;68342;52.598;13.450;2024-03-23T01:40:12;36.54;31.76;55.92;;
37162;Laerm;68342;52.598;13.450;2024-03-23T01:42:40;36.53;31.87;56.94;;
37162;Laerm;68342;52.598;13.450;2024-03-23T01:45:07;36.02;31.11;51.27;;
37162;Laerm;68342;52.598;13.450;2024-03-23T01:47:32;36.43;31.78;54.59;;
37162;Laerm;68342;52.598;13.450;2024-03-23T01:49:58;35.85;31.23;57.47;;
37162;Laerm;68342;52.598;13.450;2024-03-23T01:52:24;35.75;30.83;52.14;;
37162;Laerm;68342;52.598;13.450;2024-03-23T01:54:49;36.18;31.65;52.43;;
37162;Laerm;68342;52.598;13.450;2024-03-23T01:57:14;36.02;30.97;53.03;;
37162;Laerm;68342;52.598;13.450;2024-03-23T01:59:40;37.57;31.23;49.35;;
37162;Laerm;68342;52.598;13.450;2024-03-23T02:02:05;38.15;31.27;55.19;;
37162;Laerm;68342;52.598;13.450;2024-03-23T02:04:30;35.91;31.21;52.48;;
37162;Laerm;68342;52.598;13.450;2024-03-23T02:06:56;36.19;31.25;55.89;;
37162;Laerm;68342;52.598;13.450;2024-03-23T02:09:21;35.64;31.03;50.17;;
37162;Laerm;68342;52.598;13.450;2024-03-23T02:11:46;36.59;31.33;51.91;;
37162;Laerm;68342;52.598;13.450;2024-03-23T02:14:12;36.88;31.73;51.10;;
37162;Laerm;68342;52.598;13.450;2024-03-23T02:16:37;36.41;31.95;50.64;;
37162;Laerm;68342;52.598;13.450;2024-03-23T02:19:02;36.66;31.58;53.54;;
37162;Laerm;68342;52.598;13.450;2024-03-23T02:21:27;36.48;31.44;49.45;;
37162;Laerm;68342;52.598;13.450;2024-03-23T02:23:56;35.99;31.09;59.45;;
37162;Laerm;68342;52.598;13.450;2024-03-23T02:26:22;36.59;31.36;55.31;;
37162;Laerm;68342;52.598;13.450;2024-03-23T02:28:47;36.61;32.21;55.04;;
37162;Laerm;68342;52.598;13.450;2024-03-23T02:31:12;36.85;31.89;51.13;;
37162;Laerm;68342;52.598;13.450;2024-03-23T02:33:38;35.99;31.08;50.70;;
37162;Laerm;68342;52.598;13.450;2024-03-23T02:36:03;37.38;31.47;51.80;;
37162;Laerm;68342;52.598;13.450;2024-03-23T02:38:28;36.84;31.40;51.02;;
37162;Laerm;68342;52.598;13.450;2024-03-23T02:40:54;36.02;31.56;51.71;;
37162;Laerm;68342;52.598;13.450;2024-03-23T02:43:19;36.81;31.37;51.20;;
37162;Laerm;68342;52.598;13.450;2024-03-23T02:45:44;36.13;31.45;50.64;;
37162;Laerm;68342;52.598;13.450;2024-03-23T02:48:09;38.12;32.03;53.65;;
37162;Laerm;68342;52.598;13.450;2024-03-23T02:50:34;38.72;33.72;50.33;;
37162;Laerm;68342;52.598;13.450;2024-03-23T02:53:00;38.06;33.86;50.27;;
37162;Laerm;68342;52.598;13.450;2024-03-23T02:55:25;37.98;33.74;49.46;;
37162;Laerm;68342;52.598;13.450;2024-03-23T02:57:50;39.49;33.12;52.34;;
37162;Laerm;68342;52.598;13.450;2024-03-23T03:00:16;37.94;32.97;51.53;;
37162;Laerm;68342;52.598;13.450;2024-03-23T03:02:41;37.82;32.45;51.31;;
37162;Laerm;68342;52.598;13.450;2024-03-23T03:05:06;38.75;34.76;51.92;;
37162;Laerm;68342;52.598;13.450;2024-03-23T03:07:32;39.18;34.26;51.74;;
37162;Laerm;68342;52.598;13.450;2024-03-23T03:09:57;38.26;33.32;51.11;;
37162;Laerm;68342;52.598;13.450;2024-03-23T03:12:22;39.19;34.76;51.93;;
37162;Laerm;68342;52.598;13.450;2024-03-23T03:14:48;39.16;33.76;51.30;;
37162;Laerm;68342;52.598;13.450;2024-03-23T03:17:13;40.06;34.27;55.41;;
37162;Laerm;68342;52.598;13.450;2024-03-23T03:19:39;40.25;35.76;52.89;;
37162;Laerm;68342;52.598;13.450;2024-03-23T03:22:05;41.41;36.87;55.42;;
37162;Laerm;68342;52.598;13.450;2024-03-23T03:24:30;42.96;36.77;68.72;;
37162;Laerm;68342;52.598;13.450;2024-03-23T03:26:55;42.15;37.04;51.32;;
37162;Laerm;68342;52.598;13.450;2024-03-23T03:29:22;42.86;38.61;51.95;;
37162;Laerm;68342;52.598;13.450;2024-03-23T03:31:47;42.51;37.43;49.71;;
37162;Laerm;68342;52.598;13.450;2024-03-23T03:34:15;41.77;37.78;55.94;;
37162;Laerm;68342;52.598;13.450;2024-03-23T03:36:40;42.34;37.69;52.01;;
37162;Laerm;68342;52.598;13.450;2024-03-23T03:39:05;41.66;36.81;49.84;;
37162;Laerm;68342;52.598;13.450;2024-03-23T03:41:31;42.50;37.71;52.71;;
37162;Laerm;68342;52.598;13.450;2024-03-23T03:43:57;42.07;37.37;52.83;;
37162;Laerm;68342;52.598;13.450;2024-03-23T03:46:26;43.75;38.83;51.52;;
37162;Laerm;68342;52.598;13.450;2024-03-23T03:48:51;42.72;37.63;56.67;;
37162;Laerm;68342;52.598;13.450;2024-03-23T03:51:16;42.33;36.39;51.05;;
37162;Laerm;68342;52.598;13.450;2024-03-23T03:53:42;42.08;38.19;55.42;;
37162;Laerm;68342;52.598;13.450;2024-03-23T03:56:07;43.25;37.32;53.32;;
37162;Laerm;68342;52.598;13.450;2024-03-23T03:58:32;42.77;36.85;56.36;;
37162;Laerm;68342;52.598;13.450;2024-03-23T04:00:57;41.84;37.75;50.82;;
37162;Laerm;68342;52.598;13.450;2024-03-23T04:03:23;41.39;36.89;52.35;;
37162;Laerm;68342;52.598;13.450;2024-03-23T04:05:51;42.54;38.33;52.18;;
37162;Laerm;68342;52.598;13.450;2024-03-23T04:08:17;41.87;37.03;52.72;;
37162;Laerm;68342;52.598;13.450;2024-03-23T04:10:42;41.38;36.71;52.40;;
37162;Laerm;68342;52.598;13.450;2024-03-23T04:13:07;41.51;36.73;54.31;;
37162;Laerm;68342;52.598;13.450;2024-03-23T04:15:33;41.45;36.91;49.69;;
37162;Laerm;68342;52.598;13.450;2024-03-23T04:17:58;42.83;38.64;52.69;;
37162;Laerm;68342;52.598;13.450;2024-03-23T04:20:23;42.49;38.20;49.67;;
37162;Laerm;68342;52.598;13.450;2024-03-23T04:22:48;42.31;37.08;52.99;;
37162;Laerm;68342;52.598;13.450;2024-03-23T04:25:14;42.10;37.50;55.13;;
37162;Laerm;68342;52.598;13.450;2024-03-23T04:27:39;42.62;38.99;52.04;;
37162;Laerm;68342;52.598;13.450;2024-03-23T04:30:05;44.02;38.59;58.71;;
37162;Laerm;68342;52.598;13.450;2024-03-23T04:32:35;46.15;38.99;61.95;;
37162;Laerm;68342;52.598;13.450;2024-03-23T04:35:00;44.72;39.40;54.83;;
37162;Laerm;68342;52.598;13.450;2024-03-23T04:37:26;43.38;38.34;55.53;;
37162;Laerm;68342;52.598;13.450;2024-03-23T04:39:51;42.84;37.48;50.67;;
37162;Laerm;68342;52.598;13.450;2024-03-23T04:42:16;42.96;36.85;51.93;;
37162;Laerm;68342;52.598;13.450;2024-03-23T04:44:42;42.89;37.00;52.25;;
37162;Laerm;68342;52.598;13.450;2024-03-23T04:47:07;42.53;36.26;56.19;;
37162;Laerm;68342;52.598;13.450;2024-03-23T04:49:32;42.78;36.91;51.28;;
37162;Laerm;68342;52.598;13.450;2024-03-23T04:51:58;42.57;36.08;51.20;;
37162;Laerm;68342;52.598;13.450;2024-03-23T04:54:23;42.22;35.56;51.84;;
37162;Laerm;68342;52.598;13.450;2024-03-23T04:56:48;41.12;34.93;53.18;;
37162;Laerm;68342;52.598;13.450;2024-03-23T04:59:14;41.02;34.62;54.40;;
37162;Laerm;68342;52.598;13.450;2024-03-23T05:01:39;41.34;34.44;51.78;;
37162;Laerm;68342;52.598;13.450;2024-03-23T05:04:07;44.06;38.74;53.56;;
37162;Laerm;68342;52.598;13.450;2024-03-23T05:06:32;44.18;39.14;63.01;;
37162;Laerm;68342;52.598;13.450;2024-03-23T05:08:57;45.57;41.06;52.73;;
37162;Laerm;68342;52.598;13.450;2024-03-23T05:11:22;46.07;41.81;54.22;;
37162;Laerm;68342;52.598;13.450;2024-03-23T05:13:48;46.01;41.75;59.15;;
37162;Laerm;68342;52.598;13.450;2024-03-23T05:16:13;47.43;42.02;59.54;;
37162;Laerm;68342;52.598;13.450;2024-03-23T05:18:38;53.34;41.38;69.42;;
37162;Laerm;68342;52.598;13.450;2024-03-23T05:21:03;47.65;41.32;69.14;;
37162;Laerm;68342;52.598;13.450;2024-03-23T05:23:29;45.63;41.46;58.05;;
37162;Laerm;68342;52.598;13.450;2024-03-23T05:25:55;45.34;40.36;60.85;;
37162;Laerm;68342;52.598;13.450;2024-03-23T05:28:23;44.17;40.78;55.96;;
37162;Laerm;68342;52.598;13.450;2024-03-23T05:30:51;45.90;41.89;56.72;;
37162;Laerm;68342;52.598;13.450;2024-03-23T05:33:18;47.45;44.08;57.63;;
37162;Laerm;68342;52.598;13.450;2024-03-23T05:35:43;48.06;45.32;58.37;;
37162;Laerm;68342;52.598;13.450;2024-03-23T05:38:08;48.87;45.88;58.06;;
37162;Laerm;68342;52.598;13.450;2024-03-23T05:40:33;50.03;47.20;59.43;;
37162;Laerm;68342;52.598;13.450;2024-03-23T05:43:02;49.72;46.77;59.22;;
37162;Laerm;68342;52.598;13.450;2024-03-23T05:45:27;49.18;46.58;63.76;;
37162;Laerm;68342;52.598;13.450;2024-03-23T05:47:52;48.40;45.74;58.40;;
37162;Laerm;68342;52.598;13.450;2024-03-23T05:50:18;48.24;45.49;62.44;;
37162;Laerm;68342;52.598;13.450;2024-03-23T05:52:43;48.20;45.50;58.04;;
37162;Laerm;68342;52.598;13.450;2024-03-23T05:55:08;47.13;44.24;56.57;;
37162;Laerm;68342;52.598;13.450;2024-03-23T05:57:34;46.49;43.48;54.42;;
37162;Laerm;68342;52.598;13.450;2024-03-23T05:59:59;46.86;44.46;57.91;;
37162;Laerm;68342;52.598;13.450;2024-03-23T06:02:24;46.41;43.78;60.85;;
37162;Laerm;68342;52.598;13.450;2024-03-23T06:04:49;47.80;43.91;59.25;;
37162;Laerm;68342;52.598;13.450;2024-03-23T06:07:15;47.24;44.69;60.58;;
37162;Laerm;68342;52.598;13.450;2024-03-23T06:09:41;46.74;44.43;57.76;;
37162;Laerm;68342;52.598;13.450;2024-03-23T06:12:06;49.30;44.20;68.53;;
37162;Laerm;68342;52.598;13.450;2024-03-23T06:14:31;47.71;44.08;58.30;;
37162;Laerm;68342;52.598;13.450;2024-03-23T06:16:58;47.05;44.25;56.44;;
37162;Laerm;68342;52.598;13.450;2024-03-23T06:19:23;48.16;44.26;66.46;;
37162;Laerm;68342;52.598;13.450;2024-03-23T06:21:48;47.74;44.37;61.42;;
37162;Laerm;68342;52.598;13.450;2024-03-23T06:24:14;48.70;45.28;62.73;;
37162;Laerm;68342;52.598;13.450;2024-03-23T06:26:39;48.47;44.97;62.26;;
37162;Laerm;68342;52.598;13.450;2024-03-23T06:29:04;46.98;43.47;64.30;;
37162;Laerm;68342;52.598;13.450;2024-03-23T06:31:30;46.62;42.79;61.60;;
37162;Laerm;68342;52.598;13.450;2024-03-23T06:33:55;46.26;41.86;67.49;;
37162;Laerm;68342;52.598;13.450;2024-03-23T06:36:21;45.75;41.90;65.83;;
37162;Laerm;68342;52.598;13.450;2024-03-23T06:38:46;45.38;41.48;65.37;;
37162;Laerm;68342;52.598;13.450;2024-03-23T06:41:11;45.74;41.76;59.70;;
37162;Laerm;68342;52.598;13.450;2024-03-23T06:43:37;44.66;40.45;60.76;;
37162;Laerm;68342;52.598;13.450;2024-03-23T06:46:02;45.30;39.59;58.00;;
37162;Laerm;68342;52.598;13.450;2024-03-23T06:48:29;45.05;39.69;64.27;;
37162;Laerm;68342;52.598;13.450;2024-03-23T06:50:57;46.69;40.32;60.00;;
37162;Laerm;68342;52.598;13.450;2024-03-23T06:53:22;45.00;38.57;62.21;;
37162;Laerm;68342;52.598;13.450;2024-03-23T06:55:51;45.56;37.83;63.68;;
37162;Laerm;68342;52.598;13.450;2024-03-23T06:58:18;47.79;38.13;65.01;;
37162;Laerm;68342;52.598;13.450;2024-03-23T07:00:43;43.96;37.96;55.84;;
37162;Laerm;68342;52.598;13.450;2024-03-23T07:03:08;43.37;37.34;54.56;;
37162;Laerm;68342;52.598;13.450;2024-03-23T07:05:33;42.46;37.06;51.56;;
37162;Laerm;68342;52.598;13.450;2024-03-23T07:07:58;42.45;38.14;57.51;;
37162;Laerm;68342;52.598;13.450;2024-03-23T07:10:24;42.74;37.68;56.20;;
37162;Laerm;68342;52.598;13.450;2024-03-23T07:12:49;43.21;37.95;59.06;;
37162;Laerm;68342;52.598;13.450;2024-03-23T07:15:14;43.66;39.06;60.94;;
37162;Laerm;68342;52.598;13.450;2024-03-23T07:17:41;49.69;39.05;67.72;;
37162;Laerm;68342;52.598;13.450;2024-03-23T07:20:06;49.25;40.19;64.10;;
37162;Laerm;68342;52.598;13.450;2024-03-23T07:22:35;46.49;38.98;63.42;;
37162;Laerm;68342;52.598;13.450;2024-03-23T07:25:00;49.00;40.16;66.49;;
37162;Laerm;68342;52.598;13.450;2024-03-23T07:27:26;46.75;39.75;66.59;;
37162;Laerm;68342;52.598;13.450;2024-03-23T07:29:51;45.33;38.54;56.68;;
37162;Laerm;68342;52.598;13.450;2024-03-23T07:32:16;46.16;39.70;60.93;;
37162;Laerm;68342;52.598;13.450;2024-03-23T07:34:41;47.56;41.03;59.96;;
37162;Laerm;68342;52.598;13.450;2024-03-23T07:37:09;47.35;41.51;61.03;;
37162;Laerm;68342;52.598;13.450;2024-03-23T07:39:34;46.02;40.22;59.01;;
37162;Laerm;68342;52.598;13.450;2024-03-23T07:41:59;44.87;39.28;61.45;;
37162;Laerm;68342;52.598;13.450;2024-03-23T07:44:25;44.79;39.72;55.84;;
37162;Laerm;68342;52.598;13.450;2024-03-23T07:46:50;46.73;41.59;56.18;;
37162;Laerm;68342;52.598;13.450;2024-03-23T07:49:15;49.72;41.57;69.27;;
37162;Laerm;68342;52.598;13.450;2024-03-23T07:51:40;48.70;42.27;67.26;;
37162;Laerm;68342;52.598;13.450;2024-03-23T07:54:06;48.09;43.20;59.60;;
37162;Laerm;68342;52.598;13.450;2024-03-23T07:56:31;45.93;41.34;53.03;;
37162;Laerm;68342;52.598;13.450;2024-03-23T07:58:57;44.60;40.91;51.77;;
37162;Laerm;68342;52.598;13.450;2024-03-23T08:01:22;44.41;40.28;56.54;;
37162;Laerm;68342;52.598;13.450;2024-03-23T08:03:49;46.21;40.79;60.43;;
37162;Laerm;68342;52.598;13.450;2024-03-23T08:06:18;47.54;40.90;61.35;;
37162;Laerm;68342;52.598;13.450;2024-03-23T08:08:53;46.44;41.39;61.65;;
37162;Laerm;68342;52.598;13.450;2024-03-23T08:11:33;47.87;43.49;58.10;;
37162;Laerm;68342;52.598;13.450;2024-03-23T08:14:03;49.53;46.45;62.65;;
37162;Laerm;68342;52.598;13.450;2024-03-23T08:16:32;47.94;44.64;57.10;;
37162;Laerm;68342;52.598;13.450;2024-03-23T08:18:59;47.01;43.67;59.09;;
37162;Laerm;68342;52.598;13.450;2024-03-23T08:21:24;46.16;42.62;53.36;;
37162;Laerm;68342;52.598;13.450;2024-03-23T08:23:51;49.07;43.57;62.80;;
37162;Laerm;68342;52.598;13.450;2024-03-23T08:26:16;49.49;42.92;68.51;;
37162;Laerm;68342;52.598;13.450;2024-03-23T08:28:43;46.47;42.44;55.30;;
37162;Laerm;68342;52.598;13.450;2024-03-23T08:31:08;47.23;43.10;58.64;;
37162;Laerm;68342;52.598;13.450;2024-03-23T08:33:34;47.55;44.26;60.42;;
37162;Laerm;68342;52.598;13.450;2024-03-23T08:36:07;48.01;45.01;56.54;;
37162;Laerm;68342;52.598;13.450;2024-03-23T08:38:33;47.48;44.77;56.18;;
37162;Laerm;68342;52.598;13.450;2024-03-23T08:41:02;47.43;44.73;54.76;;
37162;Laerm;68342;52.598;13.450;2024-03-23T08:43:28;48.37;44.71;60.40;;
37162;Laerm;68342;52.598;13.450;2024-03-23T08:46:03;50.43;46.04;61.22;;
37162;Laerm;68342;52.598;13.450;2024-03-23T08:48:29;49.66;46.81;59.53;;
37162;Laerm;68342;52.598;13.450;2024-03-23T08:51:03;54.04;47.65;64.97;;
37162;Laerm;68342;52.598;13.450;2024-03-23T08:53:29;51.84;46.39;63.20;;
37162;Laerm;68342;52.598;13.450;2024-03-23T08:55:55;51.90;47.47;65.51;;
37162;Laerm;68342;52.598;13.450;2024-03-23T08:58:21;50.41;47.43;59.27;;
37162;Laerm;68342;52.598;13.450;2024-03-23T09:00:46;50.32;46.55;57.90;;
37162;Laerm;68342;52.598;13.450;2024-03-23T09:03:12;50.07;46.46;62.05;;
37162;Laerm;68342;52.598;13.450;2024-03-23T09:05:40;49.07;46.34;60.10;;
37162;Laerm;68342;52.598;13.450;2024-03-23T09:08:06;50.95;47.85;59.22;;
37162;Laerm;68342;52.598;13.450;2024-03-23T09:10:32;50.64;46.20;57.90;;
37162;Laerm;68342;52.598;13.450;2024-03-23T09:12:57;50.44;47.02;62.59;;
37162;Laerm;68342;52.598;13.450;2024-03-23T09:15:22;49.68;46.03;67.15;;
37162;Laerm;68342;52.598;13.450;2024-03-23T09:17:47;49.54;46.36;58.72;;
37162;Laerm;68342;52.598;13.450;2024-03-23T09:20:13;50.18;47.08;57.72;;
37162;Laerm;68342;52.598;13.450;2024-03-23T09:22:38;50.17;47.24;60.00;;
37162;Laerm;68342;52.598;13.450;2024-03-23T09:25:03;52.39;46.51;67.53;;
37162;Laerm;68342;52.598;13.450;2024-03-23T09:27:30;49.21;46.00;60.02;;
37162;Laerm;68342;52.598;13.450;2024-03-23T09:29:55;50.64;46.99;63.91;;
37162;Laerm;68342;52.598;13.450;2024-03-23T09:32:20;50.34;47.05;60.90;;
37162;Laerm;68342;52.598;13.450;2024-03-23T09:34:45;49.68;46.13;55.50;;
37162;Laerm;68342;52.598;13.450;2024-03-23T09:37:11;49.85;46.93;59.58;;
37162;Laerm;68342;52.598;13.450;2024-03-23T09:39:36;50.07;45.62;60.77;;
37162;Laerm;68342;52.598;13.450;2024-03-23T09:42:02;50.20;46.65;65.46;;
37162;Laerm;68342;52.598;13.450;2024-03-23T09:44:27;49.52;45.93;62.27;;
37162;Laerm;68342;52.598;13.450;2024-03-23T09:46:54;49.26;46.37;62.88;;
37162;Laerm;68342;52.598;13.450;2024-03-23T09:49:20;50.04;45.92;64.60;;
37162;Laerm;68342;52.598;13.450;2024-03-23T09:51:45;50.83;47.46;65.62;;
37162;Laerm;68342;52.598;13.450;2024-03-23T09:54:10;50.33;46.58;61.16;;
37162;Laerm;68342;52.598;13.450;2024-03-23T09:56:35;49.59;45.03;60.38;;
37162;Laerm;68342;52.598;13.450;2024-03-23T09:59:01;50.63;47.52;63.40;;
37162;Laerm;68342;52.598;13.450;2024-03-23T10:01:29;51.79;47.50;63.49;;
37162;Laerm;68342;52.598;13.450;2024-03-23T10:03:54;50.68;47.44;60.68;;
37162;Laerm;68342;52.598;13.450;2024-03-23T10:06:21;49.97;45.46;63.68;;
37162;Laerm;68342;52.598;13.450;2024-03-23T10:08:46;49.53;45.87;61.99;;
37162;Laerm;68342;52.598;13.450;2024-03-23T10:11:12;50.45;44.58;69.00;;
37162;Laerm;68342;52.598;13.450;2024-03-23T10:13:38;48.71;44.42;61.64;;
37162;Laerm;68342;52.598;13.450;2024-03-23T10:16:06;48.05;44.23;57.14;;
37162;Laerm;68342;52.598;13.450;2024-03-23T10:18:31;49.99;44.46;68.36;;
37162;Laerm;68342;52.598;13.450;2024-03-23T10:23:31;48.35;45.08;57.70;;
37162;Laerm;68342;52.598;13.450;2024-03-23T10:28:37;49.27;41.31;65.41;;
37162;Laerm;68342;52.598;13.450;2024-03-23T10:31:15;46.92;41.48;59.28;;
37162;Laerm;68342;52.598;13.450;2024-03-23T10:33:44;48.28;42.06;58.19;;
37162;Laerm;68342;52.598;13.450;2024-03-23T10:36:09;44.47;41.09;51.64;;
37162;Laerm;68342;52.598;13.450;2024-03-23T10:38:34;44.30;41.22;53.00;;
37162;Laerm;68342;52.598;13.450;2024-03-23T10:41:00;45.58;40.99;54.42;;
37162;Laerm;68342;52.598;13.450;2024-03-23T10:43:26;43.59;40.10;52.01;;
37162;Laerm;68342;52.598;13.450;2024-03-23T10:45:51;47.68;41.37;59.57;;
37162;Laerm;68342;52.598;13.450;2024-03-23T10:48:17;46.30;41.84;60.34;;
37162;Laerm;68342;52.598;13.450;2024-03-23T10:50:42;46.08;41.25;54.35;;
37162;Laerm;68342;52.598;13.450;2024-03-23T10:53:07;46.16;41.24;56.46;;
37162;Laerm;68342;52.598;13.450;2024-03-23T10:55:33;46.36;41.09;54.13;;
37162;Laerm;68342;52.598;13.450;2024-03-23T10:57:59;64.11;40.50;80.48;;
37162;Laerm;68342;52.598;13.450;2024-03-23T11:00:25;44.58;40.47;60.33;;
37162;Laerm;68342;52.598;13.450;2024-03-23T11:02:53;47.06;40.38;60.11;;
37162;Laerm;68342;52.598;13.450;2024-03-23T11:05:28;46.68;40.66;62.17;;
37162;Laerm;68342;52.598;13.450;2024-03-23T11:07:54;46.53;40.62;69.73;;
37162;Laerm;68342;52.598;13.450;2024-03-23T11:10:26;45.66;40.69;56.52;;
37162;Laerm;68342;52.598;13.450;2024-03-23T11:12:53;45.79;40.89;57.08;;
37162;Laerm;68342;52.598;13.450;2024-03-23T11:15:18;45.58;41.18;60.07;;
37162;Laerm;68342;52.598;13.450;2024-03-23T11:17:53;47.98;41.66;68.49;;
37162;Laerm;68342;52.598;13.450;2024-03-23T11:20:31;60.30;41.08;91.02;;
37162;Laerm;68342;52.598;13.450;2024-03-23T11:22:56;45.10;40.72;56.59;;
37162;Laerm;68342;52.598;13.450;2024-03-23T11:25:23;44.88;41.38;55.15;;
37162;Laerm;68342;52.598;13.450;2024-03-23T11:27:51;44.49;40.69;57.33;;
37162;Laerm;68342;52.598;13.450;2024-03-23T11:32:42;44.85;41.21;53.23;;
37162;Laerm;68342;52.598;13.450;2024-03-23T11:35:08;43.21;39.56;56.81;;
37162;Laerm;68342;52.598;13.450;2024-03-23T11:37:35;43.62;39.83;52.10;;
37162;Laerm;68342;52.598;13.450;2024-03-23T11:40:00;46.52;40.24;61.88;;
37162;Laerm;68342;52.598;13.450;2024-03-23T11:42:26;50.83;39.23;68.35;;
37162;Laerm;68342;52.598;13.450;2024-03-23T11:44:52;47.35;40.38;64.03;;
37162;Laerm;68342;52.598;13.450;2024-03-23T11:47:17;44.20;40.25;58.99;;
37162;Laerm;68342;52.598;13.450;2024-03-23T11:49:42;45.17;41.07;57.82;;
37162;Laerm;68342;52.598;13.450;2024-03-23T11:52:07;47.11;40.91;66.20;;
37162;Laerm;68342;52.598;13.450;2024-03-23T11:54:33;46.50;42.09;57.49;;
37162;Laerm;68342;52.598;13.450;2024-03-23T11:57:07;46.82;42.51;59.31;;
37162;Laerm;68342;52.598;13.450;2024-03-23T11:59:36;47.66;42.93;58.09;;
37162;Laerm;68342;52.598;13.450;2024-03-23T12:02:09;47.62;43.66;63.50;;
37162;Laerm;68342;52.598;13.450;2024-03-23T12:04:36;47.32;42.19;58.09;;
37162;Laerm;68342;52.598;13.450;2024-03-23T12:09:35;47.46;43.36;60.98;;
37162;Laerm;68342;52.598;13.450;2024-03-23T12:14:32;46.47;41.85;62.07;;
37162;Laerm;68342;52.598;13.450;2024-03-23T12:17:07;49.18;43.71;71.38;;
37162;Laerm;68342;52.598;13.450;2024-03-23T12:19:32;48.14;42.55;60.78;;
37162;Laerm;68342;52.598;13.450;2024-03-23T12:21:57;48.01;43.52;57.04;;
37162;Laerm;68342;52.598;13.450;2024-03-23T12:24:22;47.81;43.50;56.57;;
37162;Laerm;68342;52.598;13.450;2024-03-23T12:26:48;48.12;44.00;58.22;;
37162;Laerm;68342;52.598;13.450;2024-03-23T12:29:15;47.33;43.04;54.90;;
37162;Laerm;68342;52.598;13.450;2024-03-23T12:31:40;47.37;43.81;52.71;;
37162;Laerm;68342;52.598;13.450;2024-03-23T12:34:06;46.22;41.59;54.86;;
37162;Laerm;68342;52.598;13.450;2024-03-23T12:36:31;46.06;41.25;56.23;;
37162;Laerm;68342;52.598;13.450;2024-03-23T12:38:56;47.54;43.41;59.14;;
37162;Laerm;68342;52.598;13.450;2024-03-23T12:41:21;47.60;42.98;58.44;;
37162;Laerm;68342;52.598;13.450;2024-03-23T12:43:48;46.15;42.67;55.37;;
37162;Laerm;68342;52.598;13.450;2024-03-23T12:46:14;47.29;43.33;62.26;;
37162;Laerm;68342;52.598;13.450;2024-03-23T12:48:39;46.69;41.77;56.86;;
37162;Laerm;68342;52.598;13.450;2024-03-23T12:51:04;46.05;42.13;52.79;;
37162;Laerm;68342;52.598;13.450;2024-03-23T12:53:36;48.91;44.72;55.21;;
37162;Laerm;68342;52.598;13.450;2024-03-23T12:56:01;47.55;42.52;57.93;;
37162;Laerm;68342;52.598;13.450;2024-03-23T12:58:28;48.64;42.81;55.08;;
37162;Laerm;68342;52.598;13.450;2024-03-23T13:00:53;46.81;42.82;55.53;;
37162;Laerm;68342;52.598;13.450;2024-03-23T13:03:18;46.51;42.72;52.91;;
37162;Laerm;68342;52.598;13.450;2024-03-23T13:05:43;46.40;41.96;52.93;;
37162;Laerm;68342;52.598;13.450;2024-03-23T13:08:09;47.65;44.22;52.99;;
37162;Laerm;68342;52.598;13.450;2024-03-23T13:10:34;48.13;44.08;54.56;;
37162;Laerm;68342;52.598;13.450;2024-03-23T13:12:59;48.34;42.75;63.71;;
37162;Laerm;68342;52.598;13.450;2024-03-23T13:15:24;47.59;42.50;64.50;;
37162;Laerm;68342;52.598;13.450;2024-03-23T13:17:50;48.76;44.73;55.82;;
37162;Laerm;68342;52.598;13.450;2024-03-23T13:20:17;48.25;43.75;58.37;;
37162;Laerm;68342;52.598;13.450;2024-03-23T13:22:42;50.16;43.35;60.13;;
37162;Laerm;68342;52.598;13.450;2024-03-23T13:25:07;48.16;44.24;55.58;;
37162;Laerm;68342;52.598;13.450;2024-03-23T13:27:33;46.67;43.06;53.28;;
37162;Laerm;68342;52.598;13.450;2024-03-23T13:29:58;46.58;42.73;53.73;;
37162;Laerm;68342;52.598;13.450;2024-03-23T13:32:23;46.67;42.89;53.27;;
37162;Laerm;68342;52.598;13.450;2024-03-23T13:34:48;45.22;41.52;57.45;;
37162;Laerm;68342;52.598;13.450;2024-03-23T13:37:15;46.67;41.51;54.46;;
37162;Laerm;68342;52.598;13.450;2024-03-23T13:39:40;45.72;41.82;53.75;;
37162;Laerm;68342;52.598;13.450;2024-03-23T13:42:07;47.25;42.76;65.34;;
37162;Laerm;68342;52.598;13.450;2024-03-23T13:44:34;47.89;42.38;73.60;;
37162;Laerm;68342;52.598;13.450;2024-03-23T13:46:59;46.35;40.70;62.25;;
37162;Laerm;68342;52.598;13.450;2024-03-23T13:49:31;48.37;41.78;73.42;;
37162;Laerm;68342;52.598;13.450;2024-03-23T13:51:57;47.26;41.52;63.97;;
37162;Laerm;68342;52.598;13.450;2024-03-23T13:54:23;47.01;42.04;64.58;;
37162;Laerm;68342;52.598;13.450;2024-03-23T13:56:49;49.70;42.37;76.67;;
37162;Laerm;68342;52.598;13.450;2024-03-23T13:59:15;47.16;40.24;65.93;;
37162;Laerm;68342;52.598;13.450;2024-03-23T14:01:40;48.45;43.28;65.37;;
37162;Laerm;68342;52.598;13.450;2024-03-23T14:04:05;46.98;41.44;66.76;;
37162;Laerm;68342;52.598;13.450;2024-03-23T14:06:31;46.80;40.58;62.63;;
37162;Laerm;68342;52.598;13.450;2024-03-23T14:08:56;49.53;41.65;65.73;;
37162;Laerm;68342;52.598;13.450;2024-03-23T14:11:21;50.05;43.23;75.18;;
37162;Laerm;68342;52.598;13.450;2024-03-23T14:13:47;48.42;42.98;67.85;;
37162;Laerm;68342;52.598;13.450;2024-03-23T14:16:12;47.49;41.29;65.21;;
37162;Laerm;68342;52.598;13.450;2024-03-23T14:18:37;48.08;43.20;65.90;;
37162;Laerm;68342;52.598;13.450;2024-03-23T14:21:03;47.91;43.55;63.83;;
37162;Laerm;68342;52.598;13.450;2024-03-23T14:23:28;46.95;41.21;64.41;;
37162;Laerm;68342;52.598;13.450;2024-03-23T14:26:00;46.67;41.69;66.12;;
37162;Laerm;68342;52.598;13.450;2024-03-23T14:28:25;54.56;47.41;68.02;;
37162;Laerm;68342;52.598;13.450;2024-03-23T14:30:51;52.82;46.29;68.59;;